Time;durP1;ratioP1;P1;durP2;ratioP2;P2;SDS_P1;SDS_P2;PMS_P1;PMS_P2;Temp;Humidity;BMP_temperature;BMP_pressure;BME280_temperature;BME280_humidity;BME280_pressure;Samples;Min_cycle;Max_cycle;Signal;HPM_P1;HPM_P2
2022/01/04 00:00:49;;;;;;;8.11;7.29;;;;;;;2.84;93.92;98829.28;462412;114;922594;-71
2022/01/04 00:01:53;;;;;;;7.96;7.20;;;;;;;2.83;93.91;98833.83;459103;114;922721;-72
2022/01/04 00:02:56;;;;;;;7.64;6.87;;;;;;;2.84;93.88;98829.28;461736;114;922702;-72
2022/01/04 00:04:00;;;;;;;6.95;6.35;;;;;;;2.84;93.88;98830.11;460192;114;930474;-71
2022/01/04 00:05:04;;;;;;;7.06;6.47;;;;;;;2.85;93.83;98834.47;460916;114;922702;-71
2022/01/04 00:06:08;;;;;;;6.81;6.26;;;;;;;2.86;93.84;98832.60;459990;114;922981;-71
2022/01/04 00:07:12;;;;;;;6.95;6.35;;;;;;;2.87;93.86;98828.84;463409;114;922640;-71
2022/01/04 00:08:15;;;;;;;6.61;6.11;;;;;;;2.87;93.84;98829.68;461846;114;923116;-71
2022/01/04 00:09:18;;;;;;;7.06;6.33;;;;;;;2.88;93.75;98834.03;460188;114;922622;-71
2022/01/04 00:10:23;;;;;;;7.03;6.36;;;;;;;2.88;93.75;98831.34;463219;114;923417;-71
2022/01/04 00:14:03;;;;;;;8.06;7.27;;;;;;;2.88;93.72;98828.65;455671;114;923012;-71
2022/01/04 00:15:07;;;;;;;9.09;8.28;;;;;;;2.89;93.72;98830.31;453408;114;922675;-71
2022/01/04 00:16:11;;;;;;;7.31;6.64;;;;;;;2.89;93.73;98824.92;455143;113;922943;-71
2022/01/04 00:17:14;;;;;;;7.90;7.19;;;;;;;2.90;93.69;98825.76;454898;115;930608;-72
2022/01/04 00:18:18;;;;;;;8.21;7.54;;;;;;;2.90;93.69;98820.37;457949;114;930727;-72
2022/01/04 00:19:23;;;;;;;8.14;7.35;;;;;;;2.91;93.75;98833.63;454243;115;930523;-73
2022/01/04 00:20:26;;;;;;;7.01;6.44;;;;;;;2.92;93.73;98824.50;453947;114;923520;-71
2022/01/04 00:21:29;;;;;;;7.40;6.70;;;;;;;2.93;93.70;98826.16;454961;115;923203;-71
2022/01/04 00:22:33;;;;;;;7.38;6.68;;;;;;;2.94;93.70;98826.98;456471;115;923056;-71
2022/01/04 00:23:36;;;;;;;6.54;5.98;;;;;;;2.94;93.63;98830.52;457479;114;922693;-71
2022/01/04 00:24:40;;;;;;;6.76;5.81;;;;;;;2.96;93.62;98834.86;457894;115;922890;-72
2022/01/04 00:25:43;;;;;;;5.87;5.37;;;;;;;2.95;93.64;98828.65;456426;115;922586;-71
2022/01/04 00:26:46;;;;;;;4.80;4.40;;;;;;;2.96;93.64;98830.31;460714;115;931034;-70
2022/01/04 00:27:51;;;;;;;4.92;4.23;;;;;;;2.97;93.62;98828.45;458457;114;925699;-72
2022/01/04 00:28:54;;;;;;;3.54;3.28;;;;;;;2.98;93.62;98836.30;456631;115;922711;-71
2022/01/04 00:29:58;;;;;;;4.89;4.38;;;;;;;2.98;93.59;98824.73;453580;115;922899;-71
2022/01/04 00:31:01;;;;;;;4.05;3.74;;;;;;;2.99;93.60;98832.57;453515;115;923044;-71
2022/01/04 00:32:05;;;;;;;3.21;2.97;;;;;;;2.99;93.57;98824.49;455700;114;922745;-71
2022/01/04 00:33:10;;;;;;;3.57;3.26;;;;;;;3.01;93.53;98837.75;454588;113;922597;-72
2022/01/04 00:34:13;;;;;;;3.26;2.61;;;;;;;3.01;93.53;98832.38;460524;115;922623;-70
2022/01/04 00:35:16;;;;;;;3.49;3.19;;;;;;;3.02;93.55;98828.65;459652;114;922574;-71
2022/01/04 00:36:20;;;;;;;2.91;2.58;;;;;;;3.02;93.50;98836.73;448928;116;923352;-70
2022/01/04 00:37:23;;;;;;;2.67;2.17;;;;;;;3.03;93.46;98836.52;447478;115;922733;-71
2022/01/04 00:38:26;;;;;;;2.84;2.44;;;;;;;3.03;93.48;98836.52;454578;115;923018;-71
2022/01/04 00:39:29;;;;;;;2.63;2.43;;;;;;;3.02;93.45;98834.86;457657;114;922628;-71
2022/01/04 00:40:33;;;;;;;3.24;2.62;;;;;;;3.06;93.48;98840.64;456036;114;922657;-72
2022/01/04 00:41:38;;;;;;;4.48;3.11;;;;;;;3.06;93.50;98832.57;460009;115;923026;-72
2022/01/04 00:42:41;;;;;;;2.96;2.45;;;;;;;3.07;93.43;98832.37;459606;114;922564;-72
2022/01/04 00:43:45;;;;;;;2.99;2.51;;;;;;;3.08;93.44;98846.66;456765;113;923907;-71
2022/01/04 00:44:48;;;;;;;2.63;2.43;;;;;;;3.09;93.37;98845.63;456588;115;922916;-71
2022/01/04 00:45:53;;;;;;;2.86;2.46;;;;;;;3.08;93.36;98839.41;454048;115;922599;-72
2022/01/04 00:46:56;;;;;;;3.19;2.17;;;;;;;3.09;93.31;98849.13;457805;114;922930;-72
2022/01/04 00:49:11;;;;;;;2.09;1.86;;;;;;;3.09;93.32;98845.63;454761;115;930786;-72
2022/01/04 00:50:15;;;;;;;2.06;1.96;;;;;;;3.10;93.33;98847.27;455640;115;923036;-72
2022/01/04 00:51:18;;;;;;;2.39;1.91;;;;;;;3.10;93.16;98844.56;456986;114;922412;-72
2022/01/04 00:52:22;;;;;;;2.26;2.13;;;;;;;3.10;93.06;98847.27;454702;115;922847;-71
2022/01/04 00:53:25;;;;;;;2.32;2.12;;;;;;;3.10;93.13;98844.56;453781;115;922690;-72
2022/01/04 00:54:29;;;;;;;2.26;2.06;;;;;;;3.10;93.21;98844.56;457093;115;922571;-72
2022/01/04 00:55:33;;;;;;;2.12;1.96;;;;;;;3.10;93.16;98852.64;456565;113;922612;-72
2022/01/04 00:56:36;;;;;;;2.09;1.82;;;;;;;3.11;93.13;98851.61;456100;115;930421;-71
2022/01/04 00:57:40;;;;;;;1.97;1.84;;;;;;;3.11;93.14;98857.00;456907;115;922651;-71
2022/01/04 00:58:43;;;;;;;2.97;2.24;;;;;;;3.11;92.94;98851.61;456378;113;930701;-71
2022/01/04 00:59:46;;;;;;;3.15;2.60;;;;;;;3.11;93.01;98838.98;456095;114;922780;-72
2022/01/04 01:00:49;;;;;;;2.52;2.32;;;;;;;3.10;92.97;98850.78;455259;113;923071;-71
2022/01/04 01:01:53;;;;;;;2.50;2.08;;;;;;;3.11;93.00;98857.83;459033;115;922657;-71
2022/01/04 01:02:57;;;;;;;2.36;2.16;;;;;;;3.11;93.01;98852.45;454725;113;930671;-71
2022/01/04 01:04:00;;;;;;;3.41;2.29;;;;;;;3.12;93.05;98858.66;456960;115;930327;-71
2022/01/04 01:05:04;;;;;;;3.33;2.47;;;;;;;3.11;92.90;98849.75;458044;115;923960;-71
2022/01/04 01:06:09;;;;;;;2.65;2.42;;;;;;;3.12;92.94;98869.44;455979;115;922667;-71
2022/01/04 01:07:12;;;;;;;3.11;2.51;;;;;;;3.12;92.92;98864.05;455764;113;922955;-70
2022/01/04 01:08:16;;;;;;;4.12;2.09;;;;;;;3.12;92.83;98866.74;455381;113;922995;-71
2022/01/04 01:09:20;;;;;;;1.99;1.89;;;;;;;3.10;92.72;98858.03;455610;113;922775;-71
2022/01/04 01:11:37;;;;;;;1.83;1.73;;;;;;;3.10;92.68;98876.88;454868;114;922936;-72
2022/01/04 01:12:40;;;;;;;2.66;1.68;;;;;;;3.10;92.62;98879.58;455524;115;923226;-71
2022/01/04 01:13:44;;;;;;;1.82;1.61;;;;;;;3.09;92.51;98877.94;456689;115;930367;-72
2022/01/04 01:14:47;;;;;;;1.85;1.74;;;;;;;3.07;92.39;98870.06;456208;114;923508;-71
2022/01/04 01:15:50;;;;;;;1.72;1.62;;;;;;;3.07;92.37;98870.06;453231;115;922560;-72
2022/01/04 01:16:54;;;;;;;2.61;1.91;;;;;;;3.07;92.40;98880.84;457111;115;922593;-71
2022/01/04 01:17:57;;;;;;;2.13;2.02;;;;;;;3.06;92.16;98878.34;452968;114;922596;-71
2022/01/04 01:19:00;;;;;;;2.71;1.42;;;;;;;3.06;92.26;98881.86;453645;114;922703;-72
2022/01/04 01:20:06;;;;;;;2.04;1.67;;;;;;;3.05;92.38;98882.89;455419;114;922911;-70
2022/01/04 01:21:09;;;;;;;1.41;1.31;;;;;;;3.06;92.35;98886.42;451913;115;922962;-70
2022/01/04 01:22:12;;;;;;;1.91;1.70;;;;;;;3.05;92.31;98899.05;457548;114;922573;-71
2022/01/04 01:23:16;;;;;;;1.40;1.30;;;;;;;3.02;91.82;98890.57;453034;114;923046;-71
2022/01/04 01:24:19;;;;;;;1.49;1.39;;;;;;;3.03;92.05;98873.38;454688;115;922603;-71
2022/01/04 01:25:23;;;;;;;1.67;1.27;;;;;;;3.02;91.91;98890.57;451992;115;922475;-72
2022/01/04 01:26:26;;;;;;;1.31;1.20;;;;;;;3.01;91.95;98880.83;454325;114;922579;-71
2022/01/04 01:27:29;;;;;;;1.29;1.19;;;;;;;2.99;91.77;98888.27;456370;114;930174;-72
2022/01/04 01:28:34;;;;;;;1.58;1.37;;;;;;;2.98;91.62;98890.14;456594;115;922499;-71
2022/01/04 01:29:39;;;;;;;1.47;1.36;;;;;;;2.99;91.75;98888.27;458052;115;922665;-71
2022/01/04 01:30:43;;;;;;;1.42;1.32;;;;;;;2.98;91.78;98886.64;454604;114;922610;-71
2022/01/04 01:31:46;;;;;;;1.08;1.02;;;;;;;2.98;91.81;98890.14;454260;115;922653;-71
2022/01/04 01:32:51;;;;;;;1.82;1.52;;;;;;;2.97;91.87;98885.81;457277;115;922549;-72
2022/01/04 01:33:54;;;;;;;1.26;1.17;;;;;;;2.96;91.84;98905.69;457722;114;923611;-71
2022/01/04 01:34:57;;;;;;;1.38;1.28;;;;;;;2.94;91.62;98895.12;454648;114;922702;-72
2022/01/04 01:36:01;;;;;;;1.32;1.20;;;;;;;2.92;91.61;98894.48;455127;113;922583;-72
2022/01/04 01:37:04;;;;;;;1.71;1.43;;;;;;;2.91;91.53;98894.72;457254;115;922519;-72
2022/01/04 01:38:08;;;;;;;1.30;1.20;;;;;;;2.91;91.46;98898.23;456333;114;922550;-72
2022/01/04 01:39:12;;;;;;;1.06;0.92;;;;;;;2.91;91.56;98892.02;455521;114;930136;-72
2022/01/04 01:40:16;;;;;;;1.24;1.07;;;;;;;2.88;91.51;98897.80;456100;115;922896;-72
2022/01/04 01:41:19;;;;;;;1.56;1.41;;;;;;;2.86;91.36;98900.72;452079;115;922641;-72
2022/01/04 01:42:23;;;;;;;1.06;0.99;;;;;;;2.86;91.43;98906.11;455248;114;922949;-72
2022/01/04 01:43:29;;;;;;;1.51;1.33;;;;;;;2.84;91.32;98907.33;454825;114;923000;-72
2022/01/04 01:44:32;;;;;;;1.23;1.08;;;;;;;2.83;91.02;98902.98;452312;115;922644;-72
2022/01/04 01:45:35;;;;;;;1.09;0.94;;;;;;;2.80;90.72;98909.62;457775;113;922720;-71
2022/01/04 01:46:39;;;;;;;1.61;1.15;;;;;;;2.80;90.74;98916.86;455398;115;922614;-71
2022/01/04 01:47:44;;;;;;;0.83;0.81;;;;;;;2.77;90.91;98914.56;454920;115;922891;-72
2022/01/04 01:48:47;;;;;;;1.24;1.14;;;;;;;2.77;91.07;98928.02;451528;115;930235;-72
2022/01/04 01:49:51;;;;;;;0.89;0.84;;;;;;;2.74;91.03;98914.98;456551;114;922999;-72
2022/01/04 01:50:54;;;;;;;0.96;0.94;;;;;;;2.73;90.93;98910.63;454877;114;922599;-71
2022/01/04 01:51:58;;;;;;;0.88;0.81;;;;;;;2.72;90.95;98917.05;452742;115;922524;-72
2022/01/04 01:53:01;;;;;;;1.09;0.96;;;;;;;2.69;90.65;98920.98;455148;115;922521;-72
2022/01/04 01:54:05;;;;;;;1.21;1.11;;;;;;;2.69;90.81;98923.69;454563;114;923069;-71
2022/01/04 01:55:09;;;;;;;1.24;1.12;;;;;;;2.69;90.94;98920.16;455556;113;930396;-71
2022/01/04 01:56:13;;;;;;;0.83;0.75;;;;;;;2.68;91.00;98929.26;459407;115;922668;-71
2022/01/04 01:57:16;;;;;;;0.92;0.92;;;;;;;2.67;90.63;98927.59;453541;114;923006;-71
2022/01/04 01:58:20;;;;;;;1.64;1.40;;;;;;;2.67;90.64;98930.28;456000;113;922668;-71
2022/01/04 01:59:23;;;;;;;1.26;1.16;;;;;;;2.66;90.86;98926.77;453570;115;922426;-72
2022/01/04 02:00:29;;;;;;;1.41;1.02;;;;;;;2.66;90.92;98929.45;456662;115;922753;-72
2022/01/04 02:01:32;;;;;;;1.15;0.96;;;;;;;2.66;90.91;98934.84;454432;114;930299;-72
2022/01/04 02:02:36;;;;;;;0.72;0.72;;;;;;;2.66;90.96;98936.70;454419;114;922911;-72
2022/01/04 02:03:39;;;;;;;0.97;0.89;;;;;;;2.65;91.04;98938.55;456972;115;930208;-73
2022/01/04 02:04:43;;;;;;;1.22;1.00;;;;;;;2.64;90.65;98934.23;456001;115;930142;-71
2022/01/04 02:05:47;;;;;;;1.61;1.32;;;;;;;2.63;90.28;98934.42;454099;114;930384;-71
2022/01/04 02:06:50;;;;;;;0.88;0.85;;;;;;;2.62;90.58;98936.28;453546;114;922691;-71
2022/01/04 02:07:55;;;;;;;1.11;1.03;;;;;;;2.60;89.66;98937.51;453512;115;922686;-71
2022/01/04 02:09:01;;;;;;;0.88;0.87;;;;;;;2.60;90.04;98941.03;458040;114;922626;-71
2022/01/04 02:10:07;;;;;;;1.04;0.87;;;;;;;2.58;90.00;98956.57;454457;114;923282;-71
2022/01/04 02:11:11;;;;;;;0.57;0.54;;;;;;;2.59;90.12;98949.33;455412;114;922514;-72
2022/01/04 02:12:15;;;;;;;0.69;0.69;;;;;;;2.57;90.11;98944.14;459514;115;922605;-71
2022/01/04 02:13:18;;;;;;;0.91;0.87;;;;;;;2.54;90.04;98947.22;456755;114;930491;-69
2022/01/04 02:14:21;;;;;;;1.03;0.87;;;;;;;2.54;90.46;98966.05;455274;114;922649;-71
2022/01/04 02:15:26;;;;;;;0.59;0.57;;;;;;;2.53;90.64;98948.28;455474;115;922559;-72
2022/01/04 02:16:31;;;;;;;0.87;0.85;;;;;;;2.53;90.78;98955.52;453839;115;922924;-71
2022/01/04 02:17:34;;;;;;;1.07;0.95;;;;;;;2.52;90.82;98968.14;454455;113;924049;-72
2022/01/04 02:18:38;;;;;;;0.93;0.91;;;;;;;2.51;90.83;98959.23;453614;113;922527;-73
2022/01/04 02:19:41;;;;;;;0.94;0.80;;;;;;;2.52;90.85;98952.00;453199;115;922634;-69
2022/01/04 02:20:44;;;;;;;0.68;0.68;;;;;;;2.51;90.81;98953.02;455144;114;922517;-69
2022/01/04 02:21:48;;;;;;;0.78;0.78;;;;;;;2.50;90.69;98960.27;453176;115;922723;-71
2022/01/04 02:22:52;;;;;;;0.69;0.69;;;;;;;2.47;90.09;98957.98;455575;114;922801;-70
2022/01/04 02:23:55;;;;;;;1.10;1.01;;;;;;;2.47;90.27;98966.06;453287;114;930207;-71
2022/01/04 02:24:58;;;;;;;0.81;0.81;;;;;;;2.45;90.09;98969.97;454730;114;923060;-71
2022/01/04 02:26:03;;;;;;;1.01;0.90;;;;;;;2.44;90.15;98970.99;454615;114;922496;-70
2022/01/04 02:27:06;;;;;;;0.82;0.71;;;;;;;2.44;90.33;98976.38;455080;115;923225;-71
2022/01/04 02:28:09;;;;;;;0.68;0.68;;;;;;;2.43;90.30;98972.02;459640;115;923335;-71
2022/01/04 02:29:12;;;;;;;0.62;0.59;;;;;;;2.42;90.39;98973.91;457947;115;922697;-70
2022/01/04 02:30:17;;;;;;;0.50;0.50;;;;;;;2.42;90.36;98978.45;453654;114;923138;-71
2022/01/04 02:31:21;;;;;;;0.42;0.40;;;;;;;2.41;90.20;98976.79;452870;115;922564;-72
2022/01/04 02:32:25;;;;;;;0.94;0.85;;;;;;;2.39;90.26;98982.36;457178;115;923004;-71
2022/01/04 02:33:28;;;;;;;1.16;1.09;;;;;;;2.39;90.36;98976.15;455467;115;922787;-71
2022/01/04 02:34:31;;;;;;;1.24;1.14;;;;;;;2.37;90.10;98991.68;454376;113;924283;-71
2022/01/04 02:35:34;;;;;;;1.34;0.95;;;;;;;2.36;90.21;98985.47;455027;114;923093;-72
2022/01/04 02:36:40;;;;;;;1.25;0.93;;;;;;;2.35;90.20;98981.11;453690;114;922735;-72
2022/01/04 02:37:43;;;;;;;0.68;0.67;;;;;;;2.33;90.08;98977.78;455201;113;923136;-71
2022/01/04 02:38:47;;;;;;;1.08;0.76;;;;;;;2.32;90.06;98983.36;455226;115;922640;-71
2022/01/04 02:39:52;;;;;;;0.93;0.59;;;;;;;2.30;89.72;98988.13;454466;114;922771;-71
2022/01/04 02:40:55;;;;;;;0.78;0.78;;;;;;;2.29;89.88;98994.53;455369;113;922562;-72
2022/01/04 02:41:58;;;;;;;0.76;0.76;;;;;;;2.28;89.97;98993.70;455307;114;922566;-72
2022/01/04 02:43:01;;;;;;;0.84;0.84;;;;;;;2.27;89.99;99007.34;454904;115;923234;-72
2022/01/04 02:44:05;;;;;;;0.50;0.50;;;;;;;2.28;90.04;98992.86;453644;115;922528;-72
2022/01/04 02:45:09;;;;;;;0.37;0.37;;;;;;;2.27;89.85;99000.09;454431;113;922665;-70
2022/01/04 02:46:13;;;;;;;0.50;0.50;;;;;;;2.26;89.74;99003.81;457270;114;923001;-72
2022/01/04 02:47:17;;;;;;;0.82;0.67;;;;;;;2.24;89.54;99005.89;457640;115;930147;-71
2022/01/04 02:48:20;;;;;;;0.38;0.34;;;;;;;2.24;89.26;99007.75;458214;115;930376;-70
2022/01/04 02:49:24;;;;;;;0.40;0.40;;;;;;;2.24;89.38;99018.50;456316;113;922952;-71
2022/01/04 02:50:28;;;;;;;0.37;0.33;;;;;;;2.21;89.54;99019.72;455586;114;922749;-71
2022/01/04 02:51:31;;;;;;;0.52;0.50;;;;;;;2.21;89.42;99018.88;456213;115;922536;-70
2022/01/04 02:52:34;;;;;;;0.64;0.46;;;;;;;2.20;88.99;99022.62;459505;114;930160;-70
2022/01/04 02:53:38;;;;;;;0.72;0.70;;;;;;;2.18;88.86;99021.98;456231;114;922680;-70
2022/01/04 02:54:41;;;;;;;0.74;0.74;;;;;;;2.17;88.58;99023.01;455977;115;922731;-70
2022/01/04 02:55:45;;;;;;;0.31;0.31;;;;;;;2.16;88.79;99027.55;455759;115;922680;-71
2022/01/04 02:56:48;;;;;;;0.28;0.28;;;;;;;2.14;88.33;99034.17;454971;114;922521;-70
2022/01/04 02:57:51;;;;;;;0.69;0.51;;;;;;;2.09;87.47;99030.20;456175;114;922801;-70
2022/01/04 02:59:02;;;;;;;0.62;0.57;;;;;;;2.09;87.78;99030.20;455579;115;922718;-71
2022/01/04 03:00:00;;;;;;;0.47;0.40;;;;;;;2.09;88.11;99021.33;452964;115;922743;-70
2022/01/04 03:01:04;;;;;;;0.51;0.49;;;;;;;2.07;88.32;99026.06;455292;113;922596;-72
2022/01/04 03:02:07;;;;;;;0.54;0.54;;;;;;;2.05;87.87;99031.63;457498;115;930282;-71
2022/01/04 03:03:11;;;;;;;0.51;0.51;;;;;;;2.03;87.35;99022.95;455583;113;922573;-71
2022/01/04 03:04:14;;;;;;;0.41;0.40;;;;;;;2.02;87.21;99028.52;455221;114;930215;-71
2022/01/04 03:05:18;;;;;;;0.42;0.31;;;;;;;2.01;87.33;99029.55;453682;114;922582;-71
2022/01/04 03:06:23;;;;;;;0.44;0.44;;;;;;;1.99;87.40;99027.05;454737;115;923033;-70
2022/01/04 03:07:26;;;;;;;0.45;0.45;;;;;;;1.98;87.29;99028.09;454602;113;922532;-71
2022/01/04 03:08:29;;;;;;;0.37;0.30;;;;;;;1.98;87.24;99029.95;454747;114;922757;-72
2022/01/04 03:09:32;;;;;;;0.61;0.61;;;;;;;1.96;86.68;99035.52;456080;113;922660;-71
2022/01/04 03:10:36;;;;;;;0.81;0.60;;;;;;;1.96;86.58;99040.06;453025;115;922471;-70
2022/01/04 03:11:39;;;;;;;0.76;0.76;;;;;;;1.94;85.78;99034.04;453026;115;922605;-71
2022/01/04 03:12:44;;;;;;;0.39;0.37;;;;;;;1.94;86.45;99048.31;456370;114;922799;-72
2022/01/04 03:13:47;;;;;;;0.40;0.40;;;;;;;1.95;86.90;99044.60;455737;115;922990;-71
2022/01/04 03:14:50;;;;;;;0.59;0.59;;;;;;;1.93;86.16;99037.78;458706;115;930300;-68
2022/01/04 03:15:54;;;;;;;0.30;0.30;;;;;;;1.93;86.87;99049.33;457284;115;922638;-71
2022/01/04 03:16:57;;;;;;;0.71;0.71;;;;;;;1.93;87.01;99038.58;453782;113;922699;-70
2022/01/04 03:18:00;;;;;;;0.66;0.64;;;;;;;1.92;86.88;99049.55;456325;113;922497;-72
2022/01/04 03:19:06;;;;;;;0.76;0.76;;;;;;;1.92;85.64;99049.55;457595;115;922512;-71
2022/01/04 03:20:10;;;;;;;0.66;0.66;;;;;;;1.93;86.18;99040.47;457778;113;923041;-71
2022/01/04 03:21:14;;;;;;;0.61;0.61;;;;;;;1.93;86.57;99048.53;455119;113;922842;-73
2022/01/04 03:22:17;;;;;;;0.59;0.59;;;;;;;1.94;87.04;99052.86;455624;115;922528;-70
2022/01/04 03:23:21;;;;;;;0.42;0.42;;;;;;;1.93;87.27;99054.71;456311;113;922579;-70
2022/01/04 03:24:25;;;;;;;0.54;0.54;;;;;;;1.93;87.47;99059.28;456115;113;922496;-70
2022/01/04 03:25:28;;;;;;;0.60;0.60;;;;;;;1.93;86.94;99054.71;454961;113;922556;-69
2022/01/04 03:26:31;;;;;;;0.42;0.42;;;;;;;1.93;86.50;99057.39;457182;115;922508;-71
2022/01/04 03:27:35;;;;;;;0.39;0.39;;;;;;;1.93;85.14;99053.91;453321;114;928546;-71
2022/01/04 03:28:40;;;;;;;0.27;0.27;;;;;;;1.94;85.76;99050.16;456676;113;922902;-71
2022/01/04 03:29:43;;;;;;;0.22;0.21;;;;;;;1.93;86.18;99057.39;456092;115;923102;-70
2022/01/04 03:30:46;;;;;;;0.61;0.61;;;;;;;1.95;86.11;99068.80;453099;115;922565;-70
2022/01/04 03:31:50;;;;;;;0.45;0.45;;;;;;;1.95;86.37;99058.05;454007;113;922641;-71
2022/01/04 03:32:54;;;;;;;0.48;0.48;;;;;;;1.95;86.70;99067.96;456851;114;922974;-70
2022/01/04 03:33:57;;;;;;;0.53;0.53;;;;;;;1.96;86.85;99061.56;456814;115;922573;-72
2022/01/04 03:35:01;;;;;;;0.37;0.36;;;;;;;1.96;87.06;99062.40;452891;115;922967;-70
2022/01/04 03:36:05;;;;;;;0.74;0.62;;;;;;;1.96;86.99;99070.46;454310;114;924191;-71
2022/01/04 03:37:08;;;;;;;0.61;0.45;;;;;;;1.97;86.91;99065.92;455472;113;930267;-67
2022/01/04 03:38:11;;;;;;;0.61;0.61;;;;;;;1.97;86.95;99071.30;455068;115;922842;-71
2022/01/04 03:39:15;;;;;;;0.47;0.47;;;;;;;1.97;86.52;99072.13;457029;115;922510;-69
2022/01/04 03:40:19;;;;;;;0.46;0.46;;;;;;;1.95;85.38;99058.05;457241;113;930195;-69
2022/01/04 03:41:23;;;;;;;0.33;0.33;;;;;;;1.95;84.95;99058.05;456659;115;922647;-70
2022/01/04 03:42:27;;;;;;;0.44;0.44;;;;;;;1.95;84.80;99071.48;460282;115;922673;-67
2022/01/04 03:43:31;;;;;;;0.39;0.39;;;;;;;1.94;84.64;99077.88;458406;113;930267;-70
2022/01/04 03:44:34;;;;;;;0.44;0.44;;;;;;;1.94;84.19;99071.67;457419;114;922526;-70
2022/01/04 03:45:37;;;;;;;0.37;0.37;;;;;;;1.94;84.77;99069.81;454233;115;922920;-70
2022/01/04 03:46:41;;;;;;;0.30;0.30;;;;;;;1.95;85.52;99076.86;458654;113;922999;-70
2022/01/04 03:47:44;;;;;;;0.53;0.53;;;;;;;1.94;85.75;99069.81;457662;113;922614;-70
2022/01/04 03:48:47;;;;;;;0.48;0.48;;;;;;;1.94;85.75;99069.81;454375;114;930633;-70
2022/01/04 03:49:50;;;;;;;0.41;0.41;;;;;;;1.95;85.16;99078.71;455398;114;922550;-70
2022/01/04 03:50:53;;;;;;;0.71;0.71;;;;;;;1.94;85.71;99077.05;453633;115;922942;-70
2022/01/04 03:51:57;;;;;;;0.70;0.70;;;;;;;1.95;86.04;99073.34;454929;114;922604;-71
2022/01/04 03:53:00;;;;;;;0.55;0.55;;;;;;;1.95;85.28;99078.71;456032;115;922521;-69
2022/01/04 03:54:03;;;;;;;0.93;0.92;;;;;;;1.95;85.76;99079.55;458501;115;922518;-70
2022/01/04 03:55:08;;;;;;;0.88;0.88;;;;;;;1.96;86.09;99080.38;457993;114;922944;-71
2022/01/04 03:56:12;;;;;;;1.37;1.27;;;;;;;1.94;85.92;99077.88;454122;114;922749;-72
2022/01/04 03:57:15;;;;;;;0.73;0.73;;;;;;;1.95;85.69;99084.09;455277;114;922824;-71
2022/01/04 03:58:18;;;;;;;0.90;0.90;;;;;;;1.96;85.79;99085.75;453139;115;922667;-72
2022/01/04 03:59:22;;;;;;;0.69;0.69;;;;;;;1.97;86.38;99087.42;454690;114;922633;-70
2022/01/04 04:00:25;;;;;;;0.63;0.62;;;;;;;1.97;86.38;99087.42;456742;113;930323;-71
2022/01/04 04:01:29;;;;;;;1.24;1.15;;;;;;;1.98;86.51;99091.78;457825;115;922734;-71
2022/01/04 04:02:32;;;;;;;1.04;1.02;;;;;;;1.98;86.62;99095.30;456188;115;930229;-70
2022/01/04 04:03:35;;;;;;;0.83;0.83;;;;;;;1.99;86.65;99091.55;454217;114;922953;-71
2022/01/04 04:04:38;;;;;;;0.50;0.50;;;;;;;1.99;86.54;99096.94;456419;115;922782;-70
2022/01/04 04:05:41;;;;;;;0.87;0.87;;;;;;;1.99;86.64;99099.63;453694;115;922632;-70
2022/01/04 04:06:45;;;;;;;0.69;0.64;;;;;;;1.98;85.85;99095.30;458561;113;923006;-70
2022/01/04 04:07:48;;;;;;;0.93;0.93;;;;;;;1.98;86.38;99089.09;455663;113;922815;-69
2022/01/04 04:08:53;;;;;;;0.68;0.66;;;;;;;1.97;86.06;99093.63;453786;115;930144;-70
2022/01/04 04:09:56;;;;;;;0.34;0.34;;;;;;;1.96;86.03;99096.50;456748;115;923362;-70
2022/01/04 04:11:00;;;;;;;0.59;0.59;;;;;;;1.96;86.31;99096.50;454573;113;922649;-69
2022/01/04 04:12:04;;;;;;;0.74;0.74;;;;;;;1.95;86.06;99100.22;456120;114;922771;-71
2022/01/04 04:13:07;;;;;;;0.92;0.89;;;;;;;1.94;85.77;99103.92;455333;113;922757;-70
2022/01/04 04:14:10;;;;;;;0.64;0.64;;;;;;;1.92;85.61;99112.20;453779;114;923059;-70
2022/01/04 04:15:14;;;;;;;1.56;1.46;;;;;;;1.92;84.77;99109.52;453943;114;922563;-71
2022/01/04 04:16:18;;;;;;;1.30;1.20;;;;;;;1.90;84.17;99118.78;453310;113;922618;-68
2022/01/04 04:17:21;;;;;;;2.39;2.19;;;;;;;1.89;84.10;99117.95;454216;115;922679;-73
2022/01/04 04:18:24;;;;;;;2.01;1.91;;;;;;;1.88;83.48;99115.45;455391;114;930445;-70
2022/01/04 04:19:27;;;;;;;1.35;1.31;;;;;;;1.87;83.77;99128.09;455847;114;923046;-71
2022/01/04 04:20:31;;;;;;;0.67;0.67;;;;;;;1.87;84.28;99127.25;454735;115;922561;-71
2022/01/04 04:21:34;;;;;;;0.69;0.69;;;;;;;1.85;84.23;99124.75;455206;115;922583;-69
2022/01/04 04:22:37;;;;;;;0.60;0.60;;;;;;;1.86;84.62;99133.64;457276;114;922974;-71
2022/01/04 04:23:40;;;;;;;0.44;0.44;;;;;;;1.85;85.02;99121.23;455611;114;922711;-69
2022/01/04 04:24:44;;;;;;;0.79;0.79;;;;;;;1.85;84.04;99138.19;455719;115;922622;-71
2022/01/04 04:25:47;;;;;;;0.59;0.59;;;;;;;1.86;84.54;99141.70;453129;115;922845;-70
2022/01/04 04:26:50;;;;;;;0.94;0.92;;;;;;;1.86;83.86;99139.85;453351;114;923091;-71
2022/01/04 04:27:53;;;;;;;0.56;0.56;;;;;;;1.87;84.27;99135.31;454934;114;922766;-71
2022/01/04 04:28:57;;;;;;;0.48;0.48;;;;;;;1.86;84.09;99137.17;454796;115;922732;-70
2022/01/04 04:30:00;;;;;;;0.71;0.51;;;;;;;1.87;84.53;99141.52;454402;115;922749;-69
2022/01/04 04:31:05;;;;;;;0.61;0.53;;;;;;;1.87;84.75;99146.89;454912;113;922615;-71
2022/01/04 04:32:08;;;;;;;0.73;0.52;;;;;;;1.89;84.95;99146.68;453933;113;922911;-69
2022/01/04 04:33:11;;;;;;;0.79;0.71;;;;;;;1.88;85.12;99153.91;455808;113;923033;-70
2022/01/04 04:34:14;;;;;;;0.84;0.84;;;;;;;1.88;85.08;99161.97;453170;114;922745;-71
2022/01/04 04:35:18;;;;;;;0.57;0.57;;;;;;;1.88;83.97;99153.07;453346;114;922662;-70
2022/01/04 04:36:21;;;;;;;0.71;0.71;;;;;;;1.85;82.27;99159.69;452872;114;922787;-70
2022/01/04 04:37:24;;;;;;;0.59;0.59;;;;;;;1.86;82.68;99155.98;457227;115;922535;-71
2022/01/04 04:38:27;;;;;;;0.73;0.70;;;;;;;1.83;81.43;99150.14;456300;115;922628;-70
2022/01/04 04:39:31;;;;;;;0.72;0.72;;;;;;;1.84;82.72;99154.50;454614;114;922671;-71
2022/01/04 04:40:35;;;;;;;0.65;0.65;;;;;;;1.83;82.99;99163.58;455271;115;930289;-71
2022/01/04 04:41:39;;;;;;;0.35;0.35;;;;;;;1.81;81.78;99157.58;455696;115;922587;-71
2022/01/04 04:42:42;;;;;;;0.49;0.49;;;;;;;1.80;81.81;99154.06;455259;114;923263;-70
2022/01/04 04:43:45;;;;;;;0.88;0.88;;;;;;;1.81;82.44;99157.58;453900;114;922590;-71
2022/01/04 04:44:48;;;;;;;0.96;0.86;;;;;;;1.78;82.13;99161.47;453155;115;922631;-71
2022/01/04 04:45:51;;;;;;;0.62;0.62;;;;;;;1.78;82.13;99161.47;453481;114;930335;-70
2022/01/04 04:46:55;;;;;;;0.98;0.89;;;;;;;1.79;82.44;99160.45;454485;113;923100;-71
2022/01/04 04:47:58;;;;;;;0.97;0.97;;;;;;;1.79;82.64;99163.14;455165;114;930577;-71
2022/01/04 04:49:01;;;;;;;0.84;0.84;;;;;;;1.79;82.60;99163.14;454187;113;922660;-70
2022/01/04 04:50:06;;;;;;;0.81;0.81;;;;;;;1.78;82.58;99158.78;458659;115;923353;-71
2022/01/04 04:51:09;;;;;;;1.03;0.91;;;;;;;1.78;82.49;99161.47;453735;114;922758;-71
2022/01/04 04:52:12;;;;;;;0.91;0.80;;;;;;;1.79;82.74;99168.52;452729;115;922409;-71
2022/01/04 04:53:16;;;;;;;0.93;0.90;;;;;;;1.79;82.71;99165.83;453708;115;922967;-70
2022/01/04 04:54:19;;;;;;;0.86;0.80;;;;;;;1.79;82.88;99173.89;455525;114;922875;-70
2022/01/04 04:55:22;;;;;;;0.94;0.90;;;;;;;1.79;82.56;99183.80;453744;114;922552;-70
2022/01/04 04:56:25;;;;;;;0.44;0.31;;;;;;;1.77;81.92;99183.16;456632;115;922603;-72
2022/01/04 04:57:28;;;;;;;0.34;0.34;;;;;;;1.78;82.24;99191.03;455078;115;922877;-70
2022/01/04 04:58:31;;;;;;;0.89;0.89;;;;;;;1.74;80.92;99181.70;454197;114;923895;-70
2022/01/04 04:59:34;;;;;;;0.53;0.53;;;;;;;1.75;81.38;99187.91;453773;114;922904;-70
2022/01/04 05:00:38;;;;;;;1.37;1.19;;;;;;;1.73;80.89;99196.16;454393;115;922642;-71
2022/01/04 05:01:42;;;;;;;1.02;1.01;;;;;;;1.73;81.44;99198.84;453579;113;922626;-70
2022/01/04 05:02:46;;;;;;;0.99;0.99;;;;;;;1.74;81.51;99211.25;454766;114;923089;-71
2022/01/04 05:03:51;;;;;;;0.75;0.75;;;;;;;1.71;80.62;99211.62;455429;114;922571;-71
2022/01/04 05:04:54;;;;;;;0.42;0.42;;;;;;;1.72;81.81;99212.45;455150;115;930145;-71